• Join FlightAware (Why Join?)
  • Login
  • US Flag 
01:51PM EDT


 

Airport Tracker/Info


-or-


 

Live Flight TrackerFlight Track Log ✈ UAL4086 ✈ 16-Apr-2013 ✈ KCVG - KIAH

Flight Track Log - Related Links

Times and Time Zones

All times are in EDT time to prevent confusion due to time zone crossing. See the UAL4086 flight status page for this flight to view local times or setup timezone preferences in your user account.

Time Position Orientation Groundspeed Altitude Reporting Facility
EDT Latitude Longitude Course Direction KTS MPH feet Rate Location/Type
06:10AM 39.0500 -84.6833 208° Southwest 163 188 1,400  Level Cincinnati TRACON
06:11AM 39.0500 -84.7000 270° West 162 186 2,300 2,280 Climbing Cincinnati TRACON
06:11AM 39.0000 -84.7333 207° Southwest 221 254 4,200 2,460 Climbing Cincinnati TRACON
06:14AM 38.6793 -84.8360 208° Southwest  Level FlightAware Approximate
06:14AM 38.8797 -84.7942 201° Southwest 244 281 9,800  Level Indianapolis Center
06:15AM 38.5931 -84.8935 208° Southwest  Level FlightAware Approximate
06:15AM 38.8028 -84.8289 199° South 293 337 10,800  Level Indianapolis Center
06:16AM 38.7092 -84.8731 200° South 334 384 12,300 1,620 Climbing Indianapolis Center
06:17AM 38.6053 -84.9214 200° South 353 406 14,100 1,680 Climbing Indianapolis Center
06:18AM 38.5142 -84.9825 208° Southwest 370 426 15,700 1,560 Climbing Indianapolis Center
06:19AM 38.4711 -85.0958 244° Southwest 361 415 17,300 1,680 Climbing Indianapolis Center
06:20AM 38.4311 -85.2142 247° West 362 417 19,200 1,980 Climbing Indianapolis Center
06:21AM 38.3961 -85.3194 247° West 355 409 21,300 2,160 Climbing Indianapolis Center
06:22AM 38.3592 -85.4306 247° West 343 395 23,600 2,280 Climbing Indianapolis Center
06:23AM 38.3225 -85.5389 247° West 332 382 25,900 2,100 Climbing Indianapolis Center
06:24AM 38.2872 -85.6444 247° West 326 375 27,900 1,980 Climbing Indianapolis Center
06:25AM 38.2519 -85.7489 247° West 320 368 29,900 1,800 Climbing Indianapolis Center
06:26AM 38.2169 -85.8503 246° West 314 361 31,600 1,620 Climbing Indianapolis Center
06:27AM 38.1828 -85.9517 247° West 312 359 33,200 1,260 Climbing Indianapolis Center
06:28AM 38.1489 -86.0542 247° West 314 361 34,200 960 Climbing Indianapolis Center
06:29AM 38.1125 -86.1592 246° West 322 371 35,200 840 Climbing Indianapolis Center
06:30AM 38.0756 -86.2656 246° West 327 376 36,000 360 Climbing Indianapolis Center
06:31AM 38.0369 -86.3786 247° West 341 392 36,000  Level Indianapolis Center
06:32AM 37.9944 -86.5003 246° West 367 422 36,000  Level Indianapolis Center
06:33AM 37.9497 -86.6297 246° West 390 449 36,000  Level Indianapolis Center
06:34AM 37.9042 -86.7589 246° West 396 456 36,000  Level Indianapolis Center
06:35AM 37.8583 -86.8878 246° West 398 458 36,000  Level Indianapolis Center
06:36AM 37.8131 -87.0158 246° West 396 456 36,000  Level Indianapolis Center
06:37AM 37.7672 -87.1442 246° West 397 457 36,000  Level Indianapolis Center
06:38AM 37.7219 -87.2736 246° West 396 456 36,000  Level Indianapolis Center
06:39AM 37.6767 -87.4006 246° West 395 455 36,000  Level Indianapolis Center
06:40AM 37.6317 -87.5269 246° West 394 453 36,000  Level Indianapolis Center
06:41AM 37.5936 -87.6300 245° Southwest 399 459 36,000  Level Memphis Center
06:42AM 37.5542 -87.7436 246° West 399 459 36,000  Level Memphis Center
06:43AM 37.5133 -87.8733 248° West 399 459 36,000  Level Memphis Center
06:44AM 37.4614 -87.9925 241° Southwest 399 459 36,000  Level Memphis Center
06:45AM 37.3694 -88.0917 221° Southwest 393 452 36,000  Level Memphis Center
06:46AM 37.2794 -88.1750 216° Southwest 396 456 36,000  Level Memphis Center
06:47AM 37.1892 -88.2583 216° Southwest 406 467 36,000  Level Memphis Center
06:48AM 37.0967 -88.3389 215° Southwest 411 473 36,000  Level Memphis Center
06:49AM 37.0042 -88.4242 216° Southwest 411 473 36,000  Level Memphis Center
06:50AM 36.9117 -88.5069 216° Southwest 411 473 36,000  Level Memphis Center
06:51AM 36.8214 -88.5867 215° Southwest 411 473 36,000  Level Memphis Center
06:52AM 36.7286 -88.6742 217° Southwest 417 480 36,000  Level Memphis Center
06:53AM 36.6361 -88.7564 216° Southwest 417 480 36,000  Level Memphis Center
06:54AM 36.5433 -88.8383 215° Southwest 417 480 36,000  Level Memphis Center
06:55AM 36.4506 -88.9200 215° Southwest 417 480 36,000  Level Memphis Center
06:56AM 36.3575 -89.0014 215° Southwest 417 480 36,000  Level Memphis Center
06:57AM 36.2625 -89.0828 215° Southwest 417 480 36,000  Level Memphis Center
06:58AM 36.1694 -89.1667 216° Southwest 417 480 36,000  Level Memphis Center
06:59AM 36.0764 -89.2503 216° Southwest 417 480 36,000  Level Memphis Center
07:00AM 35.9936 -89.3231 215° Southwest 417 480 36,000  Level Memphis Center
07:01AM 35.9006 -89.4064 216° Southwest 417 480 36,000  Level Memphis Center
07:02AM 35.8114 -89.4867 216° Southwest 417 480 36,000  Level Memphis Center
07:03AM 35.7161 -89.5694 215° Southwest 417 480 36,000  Level Memphis Center
07:04AM 35.6311 -89.6494 217° Southwest 406 467 36,000  Level Memphis Center
07:05AM 35.5378 -89.7294 215° Southwest 406 467 36,000  Level Memphis Center
07:06AM 35.4464 -89.8092 215° Southwest 406 467 36,000  Level Memphis Center
07:07AM 35.3528 -89.8911 216° Southwest 411 473 36,000  Level Memphis Center
07:08AM 35.2611 -89.9731 216° Southwest 411 473 36,000  Level Memphis Center
07:09AM 35.1675 -90.0547 216° Southwest 411 473 36,000  Level Memphis Center
07:10AM 35.0719 -90.1364 215° Southwest 417 480 36,000  Level Memphis Center
07:11AM 34.9761 -90.2203 216° Southwest 422 486 36,000  Level Memphis Center
07:12AM 34.8717 -90.3089 215° Southwest 422 486 36,000  Level Memphis Center
07:13AM 34.7778 -90.3875 215° Southwest 422 486 36,000  Level Memphis Center
07:14AM 34.6819 -90.4683 215° Southwest 422 486 36,000  Level Memphis Center
07:15AM 34.5900 -90.5464 215° Southwest 417 480 36,000  Level Memphis Center
07:16AM 34.4981 -90.6242 215° Southwest 417 480 36,000  Level Memphis Center
07:17AM 34.4061 -90.6994 214° Southwest 410 472 36,000  Level Memphis Center
07:18AM 34.3161 -90.7772 216° Southwest 410 472 36,000  Level Memphis Center
07:19AM 34.2219 -90.8519 213° Southwest 405 466 36,000  Level Memphis Center
07:20AM 34.1317 -90.9269 215° Southwest 405 466 36,000  Level Memphis Center
07:21AM 34.0394 -91.0064 216° Southwest 405 466 36,000  Level Memphis Center
07:22AM 33.9472 -91.0833 215° Southwest 405 466 36,000  Level Memphis Center
07:23AM 33.8550 -91.1575 214° Southwest 405 466 36,000  Level Memphis Center
07:24AM 33.7628 -91.2342 215° Southwest 405 466 36,000  Level Memphis Center
07:25AM 33.6725 -91.3108 215° Southwest 405 466 36,000  Level Memphis Center
07:26AM 33.5800 -91.3869 214° Southwest 405 466 36,000  Level Memphis Center
07:27AM 33.4875 -91.4606 214° Southwest 405 466 36,000  Level Memphis Center
07:28AM 33.4033 -91.5292 214° Southwest 405 466 36,000  Level Memphis Center
07:30AM 33.1781 -91.7178 215° Southwest 394 453 36,000  Level Fort Worth Center
07:31AM 33.0975 -91.7825 214° Southwest 419 482 36,000  Level Fort Worth Center
07:32AM 32.9886 -91.8686 214° Southwest 413 475 36,000  Level Fort Worth Center
07:33AM 32.8961 -91.9436 214° Southwest 413 475 36,000  Level Fort Worth Center
07:34AM 32.7992 -92.0186 213° Southwest 404 465 36,000  Level Fort Worth Center
07:36AM 32.6561 -92.1339 214° Southwest 403 464 36,000  Level Houston Center
07:37AM 32.5636 -92.2083 214° Southwest 402 463 36,000  Level Houston Center
07:38AM 32.4714 -92.2828 214° Southwest 401 461 36,000  Level Houston Center
07:39AM 32.3608 -92.3708 214° Southwest 400 460 36,000  Level Houston Center
07:40AM 32.2681 -92.4450 214° Southwest 403 464 36,000  Level Houston Center
07:41AM 32.1761 -92.5167 213° Southwest 399 459 36,000  Level Houston Center
07:42AM 32.0839 -92.5903 214° Southwest 400 460 36,000  Level Houston Center
07:43AM 31.9919 -92.6625 214° Southwest 399 459 36,000  Level Houston Center
07:44AM 31.9061 -92.7436 219° Southwest 399 459 36,000  Level Houston Center
07:45AM 31.8225 -92.8239 219° Southwest 392 451 36,000  Level Houston Center
07:46AM 31.7386 -92.9064 220° Southwest 394 453 36,000  Level Houston Center
07:47AM 31.6561 -92.9850 219° Southwest 385 443 36,000  Level Houston Center
07:48AM 31.5575 -93.0806 220° Southwest 384 442 36,000  Level Houston Center
07:49AM 31.4753 -93.1592 219° Southwest 382 440 36,000  Level Houston Center
07:50AM 31.3925 -93.2372 219° Southwest 384 442 36,000  Level Houston Center
07:51AM 31.3106 -93.3158 219° Southwest 383 441 36,000 -420 Level Houston Center
07:52AM 31.2261 -93.3953 219° Southwest 388 447 35,200 -900 Descending Houston Center
07:53AM 31.1419 -93.4753 219° Southwest 391 450 34,200 -1,140 Descending Houston Center
07:54AM 31.0564 -93.5569 219° Southwest 398 458 32,900 -1,680 Descending Houston Center
07:55AM 30.9703 -93.6375 219° Southwest 399 459 30,900 -2,040 Descending Houston Center
07:56AM 30.8833 -93.7197 219° Southwest 400 460 28,800 -2,340 Descending Houston Center
07:57AM 30.7786 -93.8200 219° Southwest 402 463 26,200 -2,400 Descending Houston Center
07:58AM 30.6922 -93.9011 219° Southwest 400 460 24,000 -2,100 Descending Houston Center
07:59AM 30.6114 -93.9767 219° Southwest 373 429 22,000 -2,040 Descending Houston Center
07:59AM 30.5903 -93.9969 220° Southwest 368 423 21,400 -2,160 Descending Houston Center
08:00AM 30.5383 -94.0453 219° Southwest 370 426 20,100 -2,040 Descending Houston Center
08:01AM 30.4481 -94.1303 219° Southwest 370 426 17,900 -1,920 Descending Houston Center
08:02AM 30.3769 -94.1956 218° Southwest 367 422 16,200 -1,980 Descending Houston Center
08:03AM 30.2867 -94.2803 219° Southwest 362 417 13,900 -1,980 Descending Houston Center
08:04AM 30.2214 -94.3422 219° Southwest 323 372 12,300 -1,680 Descending Houston Center
08:05AM 30.1842 -94.4386 246° West 328 377 10,500 -1,200 Descending Houston Center
08:06AM 30.1700 -94.5253 259° West 310 357 10,000 -540 Descending Houston Center
08:06AM 30.1686 -94.5389 263° West 315 362 10,000  Level Houston Center
08:07AM 30.1528 -94.6292 259° West 312 359 10,000  Level Houston Center
08:08AM 30.1333 -94.7331 258° West 314 361 10,000  Level Houston Center
08:09AM 30.1158 -94.8344 259° West 314 361 10,000 -60 Level Houston Center
08:10AM 30.1050 -94.9203 262° West 271 312 9,900 -360 Descending Houston Center
08:10AM 30.1061 -94.9444 273° West 295 339 9,600 -1,020 Descending Houston Center
08:11AM 30.1056 -95.0144 269° West 268 308 8,800 -1,020 Descending Houston Center
08:12AM 30.1069 -95.1150 271° West 270 311 7,600 -1,080 Descending Houston Center
08:13AM 30.1075 -95.1931 270° West 271 312 6,700 -900 Descending Houston Center
08:14AM 30.1072 -95.2800 270° West 273 314 6,000 -360 Descending Houston Center
08:15AM 30.1069 -95.3694 270° West 282 325 6,000 -900 Level Houston Center
08:16AM 30.1061 -95.4542 269° West 268 308 4,200 -1,440 Descending Houston Center
08:17AM 30.1058 -95.5433 270° West 259 298 3,100 -600 Descending Houston Center
08:18AM 30.1072 -95.6303 271° West 269 310 3,000 -60 Descending Houston Center
08:19AM 30.0956 -95.7114 261° West 259 298 3,000  Level Houston Center
08:20AM 30.0872 -95.7247 234° Southwest 264 304 3,000  Level Houston Center
08:20AM 30.0386 -95.7325 188° South 224 258 3,000  Level Houston Center
08:21AM 30.0247 -95.7303 172° South 242 278 3,000  Level Houston Center
08:21AM 30.0042 -95.6736 113° Southeast 260 299 3,000  Level Houston Center
08:22AM 30.0067 -95.6622 76° East 253 291 3,000  Level Houston Center
08:22AM 30.0069 -95.5889 90° East 266 306 3,000  Level Houston Center
08:23AM 30.0064 -95.5778 93° East 261 300 3,000 -300 Level Houston Center
08:23AM 30.0064 -95.5119 90° East 240 276 2,700 -540 Descending Houston Center
08:24AM 30.0072 -95.4997 85° East 251 289 2,500 -780 Descending Houston Center